Airfield :
LOGIN :

Register | Disclaimer

   EN    FR    IT 

 










Legend :    VFR   Marginal VFR   IFR   Intensive IFR   Very Intensive IFR
Visi :
Ceiling :
>= 8 km
>= 3000ft
5 to 8 km
1000 to 3000 ft
1500m to 5 km
500 to 1000 ft
800 to 1500m
200 to 500 ft
< 800m
< 200 ft
Symbols :   Thunderstorms  Fog  Heavy snow  Heavy precipitations  Wind > 20 kt
SIGMETs :     Misc.  Thunderstorms  Icing  Turbulence  Mountain Waves  Volcanic Ashes






- Airport Elevation : 327 ft
- IATA code : BHX


EGBB - Birmingham

CURRENT METAR :
  • 270820Z 31007KT 9999 SCT007 SCT020 02/02 Q0998

EXPIRED METARs :
  • 270750Z 31006KT 7000 -RA SCT005 OVC018 02/01 Q0997
  • 270720Z 32004KT 5000 BR SCT004 OVC008 01/01 Q0997
  • 270650Z 32005KT 3800 -RASN OVC008 01/01 Q0997
  • 270620Z 30004KT 5000 -RA OVC006 02/01 Q0997
  • 270550Z VRB03KT 9000 -RA BKN009 02/02 Q0997

TAF TAF EGBB
Valid from the 27 at 06:00 until the 28 at 06:00 UTC


270505Z 2706/2806 21008KT 9999 SCT020 BKN030
TEMPO 2706/2711 7000 RA BKN006
PROB40
TEMPO 2706/2711 1200 RASN BKN002
BECMG 2711/2713 31012KT
PROB30
TEMPO 2713/2718 32015G25KT
ATIS : +44 121 780 0910



MET'MAP, your aeronautical weather chart ! - Copyright ORBIFLY December 2007 - Disclaimer

ORBIFLY MET'MAP TEAM :

Programming & Development : Alexandra Zaïnal
Concept & original design : Baudouin d'Aumeries
Assistance for programming : Marc-Olivier Méhu
Technical & hardware support : Manuel Goepfert

Contact : metmap@orbifly.com




SOURCES & CREDITS :

   NOAA